Route Details

Aircraft Information
Group: Trans-Pacific Ops
Types: B744, MD11
Route Data
Distance: 3740nm
Duration: 8h 44m
Origin METAR: PANC 072353Z 07005KT 9SM -SN OVC050 M04/M07 A2949 RMK AO2 SNB35 SLP990 P0000 60000 T10441067 11039 21072 51010
Dest. METAR: ZSPD 080030Z 03005MPS 350V060 3500 BR NSC 08/05 Q1027 NOSIG
Freight Data
(for Feb 8, 2023)
Load Factor:
11.7%
Manifested Cargo: 26,949lbs
Financial History
Total Freight: 69,838lbs
Average Load: 0lbs/flt
Fuel Used: 948,256lbs
Avg. Fuel Used: 0lbs/flt
Fuel Expense: $451,664
Avg. Fuel Expense: $0
Avg. Fuel Cost: $0/lbs
Total Gross Income: $133,871
Pilot Pay: $1,504
Total Expenses: $52,878
Total Revenue: $-389,219
Average Revenue: $0

Capitol Logistics 836




PANC
Ted Stevens Anchorage International Airport
Anchorage, Alaska
ZSPD
Shanghai Pudong International Airport
Shanghai,